createdAt,value
2022-09-22T00:01:07.610Z,83.82
2022-09-22T00:03:40.107Z,83.77
2022-09-22T00:06:10.027Z,84.85
2022-09-22T00:08:39.237Z,85.50
2022-09-22T00:11:13.868Z,85.04
2022-09-22T00:13:40.897Z,85.34
2022-09-22T00:16:09.919Z,86.91
2022-09-22T00:18:36.666Z,86.61
2022-09-22T00:21:15.747Z,86.84
2022-09-22T00:23:43.066Z,85.93
2022-09-22T00:26:13.846Z,86.55
2022-09-22T00:28:41.837Z,86.25
2022-09-22T00:31:12.499Z,86.24
2022-09-22T00:33:40.815Z,86.10
2022-09-22T00:36:07.686Z,87.21
2022-09-22T00:38:35.126Z,87.82
2022-09-22T00:41:02.168Z,86.64
2022-09-22T00:43:30.688Z,86.53
2022-09-22T00:46:25.858Z,87.10
2022-09-22T00:48:59.566Z,87.79
2022-09-22T00:51:31.019Z,87.92
2022-09-22T00:54:00.502Z,87.09
2022-09-22T00:56:31.847Z,88.31
2022-09-22T00:59:03.161Z,87.87
2022-09-22T01:01:29.921Z,87.57
2022-09-22T01:03:56.872Z,89.59
2022-09-22T01:06:27.885Z,88.23
2022-09-22T01:08:55.853Z,87.02
2022-09-22T01:11:24.170Z,86.94
2022-09-22T01:14:35.819Z,87.00
2022-09-22T01:17:09.171Z,87.90
2022-09-22T01:20:03.528Z,87.91
2022-09-22T01:22:42.232Z,87.24
2022-09-22T01:25:44.462Z,88.42
2022-09-22T01:28:38.655Z,88.48
2022-09-22T01:31:14.786Z,87.30
2022-09-22T01:33:48.654Z,87.12
2022-09-22T01:36:41.304Z,86.53
2022-09-22T01:39:21.283Z,85.76
2022-09-22T01:41:56.491Z,87.84
2022-09-22T01:44:35.449Z,88.51
2022-09-22T01:47:07.398Z,87.82
2022-09-22T01:49:38.334Z,88.36
2022-09-22T01:52:11.971Z,88.62
2022-09-22T01:54:49.679Z,88.32
2022-09-22T01:57:24.440Z,88.08
2022-09-22T01:59:55.220Z,88.06
2022-09-22T02:02:33.472Z,88.91
2022-09-22T02:05:04.865Z,88.70
2022-09-22T02:07:37.247Z,90.53
2022-09-22T02:10:09.521Z,92.15
2022-09-22T02:12:36.871Z,91.68
2022-09-22T02:15:30.243Z,91.23
2022-09-22T02:18:03.021Z,90.77
2022-09-22T02:20:30.259Z,91.11
2022-09-22T02:22:57.371Z,90.58
2022-09-22T02:25:24.954Z,91.45
2022-09-22T02:27:53.650Z,91.47
2022-09-22T02:30:20.304Z,91.03
2022-09-22T02:32:49.437Z,91.23
2022-09-22T02:35:16.407Z,92.29
2022-09-22T02:37:55.434Z,91.43
2022-09-22T02:40:51.164Z,90.73
2022-09-22T02:43:32.314Z,93.49
2022-09-22T02:46:13.428Z,93.18
2022-09-22T02:48:47.882Z,93.41
2022-09-22T02:51:15.285Z,93.63
2022-09-22T02:53:41.853Z,92.68
2022-09-22T02:56:08.470Z,93.03
2022-09-22T02:58:34.971Z,92.54
2022-09-22T03:01:01.458Z,92.14
2022-09-22T03:03:27.966Z,91.87
2022-09-22T03:05:54.458Z,92.20
2022-09-22T03:08:21.006Z,92.00
2022-09-22T03:10:47.541Z,91.39
2022-09-22T03:13:16.814Z,90.88
2022-09-22T03:15:45.728Z,90.71
2022-09-22T03:18:12.594Z,91.56
2022-09-22T03:20:39.120Z,91.49
2022-09-22T03:23:05.763Z,91.57
2022-09-22T03:25:32.928Z,91.99
2022-09-22T03:27:59.462Z,90.44
2022-09-22T03:30:26.074Z,91.25
2022-09-22T03:32:52.579Z,91.72
2022-09-22T03:35:19.145Z,92.31
2022-09-22T03:37:46.945Z,92.90
2022-09-22T03:40:13.700Z,94.23
2022-09-22T03:42:40.376Z,95.49
2022-09-22T03:45:07.308Z,96.93
2022-09-22T03:47:33.897Z,97.60
2022-09-22T03:50:00.416Z,98.20
2022-09-22T03:52:27.405Z,98.99
2022-09-22T03:54:54.515Z,99.53
2022-09-22T03:57:21.021Z,99.90
2022-09-22T03:59:47.518Z,99.90
2022-09-22T04:02:14.191Z,99.91
2022-09-22T04:04:41.182Z,99.07
2022-09-22T04:07:07.768Z,98.99
2022-09-22T04:09:35.068Z,99.53
2022-09-22T04:12:02.123Z,100.00
2022-09-22T04:14:28.673Z,99.95
2022-09-22T04:16:55.258Z,99.67
2022-09-22T04:19:22.817Z,99.46
2022-09-22T04:21:53.193Z,97.33
2022-09-22T04:24:21.257Z,96.97
2022-09-22T04:27:02.165Z,96.04
2022-09-22T04:29:34.351Z,95.94
2022-09-22T04:32:01.039Z,96.24
2022-09-22T04:34:27.591Z,95.75
2022-09-22T04:36:54.061Z,95.92
2022-09-22T04:39:23.777Z,97.10
2022-09-22T04:41:50.973Z,99.08
2022-09-22T04:44:17.468Z,99.71
2022-09-22T04:46:46.243Z,99.75
2022-09-22T04:49:16.126Z,98.93
2022-09-22T04:51:42.820Z,98.71
2022-09-22T04:54:09.402Z,98.60
2022-09-22T04:56:35.899Z,98.85
2022-09-22T04:59:02.591Z,98.91
2022-09-22T05:01:29.188Z,98.98
2022-09-22T05:03:55.697Z,99.09
2022-09-22T05:06:22.269Z,99.03
2022-09-22T05:08:48.758Z,99.55
2022-09-22T05:11:15.702Z,99.89
2022-09-22T05:13:42.189Z,99.79
2022-09-22T05:16:08.963Z,99.80
2022-09-22T05:18:35.692Z,99.88
2022-09-22T05:21:02.458Z,100.00
2022-09-22T05:23:29.282Z,100.00
2022-09-22T05:25:56.991Z,100.00
2022-09-22T05:28:24.379Z,100.00
2022-09-22T05:30:51.913Z,100.00
2022-09-22T05:33:18.658Z,100.00
2022-09-22T05:35:45.598Z,100.00
2022-09-22T05:38:12.087Z,100.00
2022-09-22T05:40:38.705Z,100.00
2022-09-22T05:43:05.371Z,100.00
2022-09-22T05:45:32.115Z,100.00
2022-09-22T05:47:58.643Z,100.00
2022-09-22T05:50:25.193Z,100.00
2022-09-22T05:52:51.922Z,100.00
2022-09-22T05:55:18.719Z,100.00
2022-09-22T05:57:45.247Z,100.00
2022-09-22T06:00:12.324Z,100.00
2022-09-22T06:02:39.465Z,100.00
2022-09-22T06:05:06.819Z,100.00
2022-09-22T06:07:33.534Z,100.00
2022-09-22T06:10:00.032Z,100.00
2022-09-22T06:12:26.543Z,100.00
2022-09-22T06:14:53.018Z,100.00
2022-09-22T06:17:19.515Z,100.00
2022-09-22T06:19:49.859Z,100.00
2022-09-22T06:22:17.963Z,100.00
2022-09-22T06:24:44.742Z,99.66
2022-09-22T06:27:11.296Z,98.46
2022-09-22T06:29:38.062Z,98.20
2022-09-22T06:32:07.955Z,97.66
2022-09-22T06:34:35.694Z,98.00
2022-09-22T06:37:02.387Z,98.82
2022-09-22T06:39:29.352Z,98.37
2022-09-22T06:41:59.830Z,96.99
2022-09-22T06:44:27.253Z,94.77
2022-09-22T06:46:53.752Z,95.05
2022-09-22T06:49:20.327Z,92.34
2022-09-22T06:51:49.455Z,92.59
2022-09-22T06:54:16.044Z,91.65
2022-09-22T06:56:45.126Z,89.16
2022-09-22T06:59:13.579Z,88.29
2022-09-22T07:01:42.259Z,88.22
2022-09-22T07:04:10.409Z,89.09
2022-09-22T07:06:37.408Z,88.09
2022-09-22T07:09:05.494Z,88.13
2022-09-22T07:11:34.281Z,87.55
2022-09-22T07:14:04.067Z,85.68
2022-09-22T07:16:30.719Z,85.11
2022-09-22T07:19:00.863Z,81.78
2022-09-22T07:21:32.754Z,83.10
2022-09-22T07:23:59.438Z,80.91
2022-09-22T07:26:32.600Z,81.52
2022-09-22T07:29:06.133Z,80.31
2022-09-22T07:31:34.814Z,79.66
2022-09-22T07:34:01.654Z,79.47
2022-09-22T07:36:31.551Z,75.28
2022-09-22T07:39:04.617Z,77.41
2022-09-22T07:41:32.642Z,77.96
2022-09-22T07:44:20.791Z,75.04
2022-09-22T07:46:47.690Z,76.35
2022-09-22T07:49:19.567Z,73.42
2022-09-22T07:51:46.341Z,72.84
2022-09-22T07:54:13.076Z,71.00
2022-09-22T07:56:44.787Z,69.89
2022-09-22T07:59:13.777Z,70.48
2022-09-22T08:01:44.147Z,71.39
2022-09-22T08:04:16.656Z,73.15
2022-09-22T08:06:44.379Z,71.81
2022-09-22T08:09:12.154Z,70.59
2022-09-22T08:11:39.749Z,69.82
2022-09-22T08:14:11.472Z,68.96
2022-09-22T08:16:40.277Z,69.82
2022-09-22T08:19:14.508Z,67.91
2022-09-22T08:21:48.298Z,69.33
2022-09-22T08:24:21.163Z,66.77
2022-09-22T08:26:50.387Z,66.56
2022-09-22T08:29:16.924Z,63.93
2022-09-22T08:31:45.282Z,65.00
2022-09-22T08:34:13.951Z,65.37
2022-09-22T08:36:47.074Z,64.44
2022-09-22T08:39:14.958Z,64.00
2022-09-22T08:41:44.389Z,62.63
2022-09-22T08:44:10.825Z,62.41
2022-09-22T08:46:41.117Z,61.04
2022-09-22T08:49:51.443Z,61.82
2022-09-22T08:52:43.264Z,61.10
2022-09-22T08:55:30.701Z,59.03
2022-09-22T08:58:08.226Z,57.69
2022-09-22T09:00:43.006Z,60.46
2022-09-22T09:03:26.443Z,60.69
2022-09-22T09:06:20.250Z,59.47
2022-09-22T09:09:04.798Z,57.34
2022-09-22T09:11:53.215Z,54.12
2022-09-22T09:14:33.654Z,58.07
2022-09-22T09:17:03.698Z,52.60
2022-09-22T09:19:53.225Z,54.51
2022-09-22T09:22:25.387Z,50.84
2022-09-22T09:27:57.153Z,55.84
2022-09-22T09:30:24.095Z,53.87
2022-09-22T09:32:59.183Z,51.56
2022-09-22T09:35:38.260Z,54.55
2022-09-22T09:38:15.490Z,53.80
2022-09-22T09:40:44.718Z,54.13
2022-09-22T09:43:12.075Z,48.89
2022-09-22T09:45:56.991Z,49.13
2022-09-22T09:48:33.087Z,51.60
2022-09-22T09:51:04.350Z,51.68
2022-09-22T09:53:32.228Z,48.23
2022-09-22T09:55:58.901Z,49.05
2022-09-22T09:58:51.655Z,48.36
2022-09-22T10:01:18.270Z,43.58
2022-09-22T10:03:47.768Z,43.09
2022-09-22T10:06:24.518Z,44.67
2022-09-22T10:08:51.842Z,45.95
2022-09-22T10:11:30.355Z,49.24
2022-09-22T10:13:57.812Z,44.76
2022-09-22T10:16:26.175Z,45.04
2022-09-22T10:18:58.728Z,42.91
2022-09-22T10:21:26.704Z,41.46
2022-09-22T10:23:55.127Z,42.02
2022-09-22T10:26:23.314Z,42.95
2022-09-22T10:29:18.481Z,42.68
2022-09-22T10:32:11.881Z,43.89
2022-09-22T10:34:41.713Z,44.16
2022-09-22T10:37:11.881Z,44.35
2022-09-22T10:39:49.707Z,46.38
2022-09-22T10:42:29.174Z,47.49
2022-09-22T10:45:19.697Z,45.74
2022-09-22T10:47:51.361Z,46.63
2022-09-22T10:50:41.383Z,46.03
2022-09-22T10:53:20.922Z,45.69
2022-09-22T10:56:14.753Z,47.65
2022-09-22T10:59:23.274Z,48.99
2022-09-22T11:02:18.268Z,49.59
2022-09-22T11:05:05.803Z,50.00
2022-09-22T11:08:11.297Z,52.92
2022-09-22T11:11:39.512Z,44.77
2022-09-22T11:14:28.045Z,42.81
2022-09-22T11:17:16.060Z,41.30
2022-09-22T11:19:58.744Z,40.75
2022-09-22T11:22:43.414Z,40.88
2022-09-22T11:25:19.421Z,35.40
2022-09-22T11:27:52.206Z,33.43
2022-09-22T11:30:23.039Z,34.91
2022-09-22T11:33:31.041Z,34.87
2022-09-22T11:36:22.387Z,38.35
2022-09-22T11:39:14.599Z,41.63
2022-09-22T11:41:47.530Z,40.75
2022-09-22T11:44:38.129Z,38.65
2022-09-22T11:47:10.390Z,40.68
2022-09-22T11:50:08.715Z,42.45
2022-09-22T11:52:58.541Z,44.78
2022-09-22T11:55:37.262Z,43.48
2022-09-22T11:58:17.983Z,43.00
2022-09-22T12:01:00.603Z,43.75
2022-09-22T12:03:33.281Z,45.51
2022-09-22T12:06:07.309Z,43.35
2022-09-22T12:08:43.160Z,41.17
2022-09-22T12:11:14.000Z,40.15
2022-09-22T12:13:44.331Z,40.70
2022-09-22T12:16:32.390Z,40.32
2022-09-22T12:19:23.088Z,35.73
2022-09-22T12:22:05.175Z,34.66
2022-09-22T12:24:33.019Z,37.57
2022-09-22T12:27:10.358Z,37.64
2022-09-22T12:29:38.803Z,39.58
2022-09-22T12:32:05.944Z,41.10
2022-09-22T12:34:38.040Z,40.99
2022-09-22T12:37:10.604Z,43.05
2022-09-22T12:39:48.551Z,45.34
2022-09-22T12:42:37.875Z,47.78
2022-09-22T12:45:15.282Z,47.70
2022-09-22T12:47:47.059Z,49.15
2022-09-22T12:50:13.536Z,48.34
2022-09-22T12:52:40.051Z,51.80
2022-09-22T12:55:20.364Z,47.96
2022-09-22T12:57:51.763Z,46.26
2022-09-22T13:00:33.503Z,47.16
2022-09-22T13:03:01.436Z,47.65
2022-09-22T13:05:27.879Z,49.62
2022-09-22T13:07:55.817Z,49.63
2022-09-22T13:10:25.170Z,52.22
2022-09-22T13:13:06.691Z,53.60
2022-09-22T13:16:00.703Z,57.36
2022-09-22T13:18:56.980Z,53.50
2022-09-22T13:21:26.146Z,49.24
2022-09-22T13:24:00.112Z,47.05
2022-09-22T13:26:34.534Z,45.07
2022-09-22T13:29:04.997Z,44.46
2022-09-22T13:31:45.859Z,40.16
2022-09-22T13:34:29.173Z,37.57
2022-09-22T13:37:03.061Z,36.45
2022-09-22T13:39:34.051Z,35.78
2022-09-22T13:42:13.157Z,34.88
2022-09-22T13:44:42.706Z,33.60
2022-09-22T13:47:17.747Z,34.49
2022-09-22T13:49:54.207Z,32.51
2022-09-22T13:52:24.748Z,32.97
2022-09-22T13:55:05.223Z,29.67
2022-09-22T13:57:35.903Z,30.84
2022-09-22T14:00:05.301Z,30.04
2022-09-22T14:02:32.713Z,30.32
2022-09-22T14:05:02.913Z,30.14
2022-09-22T14:07:35.977Z,29.28
2022-09-22T14:10:09.157Z,30.83
2022-09-22T14:12:35.798Z,30.18
2022-09-22T14:15:38.686Z,29.99
2022-09-22T14:18:21.741Z,29.64
2022-09-22T14:20:48.864Z,28.33
2022-09-22T14:23:32.924Z,29.21
2022-09-22T14:26:04.082Z,29.51
2022-09-22T14:28:36.773Z,29.71
2022-09-22T14:31:13.733Z,28.86
2022-09-22T14:33:46.387Z,29.13
2022-09-22T14:36:19.402Z,28.42
2022-09-22T14:38:56.055Z,27.59
2022-09-22T14:41:35.786Z,29.29
2022-09-22T14:44:35.768Z,28.41
2022-09-22T14:47:17.202Z,28.11
2022-09-22T14:49:44.556Z,27.30
2022-09-22T14:52:26.873Z,29.05
2022-09-22T14:54:57.535Z,29.13
2022-09-22T14:57:26.887Z,27.89
2022-09-22T15:00:15.689Z,30.31
2022-09-22T15:02:49.625Z,31.76
2022-09-22T15:05:29.563Z,34.38
2022-09-22T15:07:58.391Z,32.63
2022-09-22T15:10:27.881Z,36.12
2022-09-22T15:12:56.375Z,36.83
2022-09-22T15:15:29.156Z,38.51
2022-09-22T15:18:19.009Z,37.93
2022-09-22T15:20:57.333Z,43.03
2022-09-22T15:23:24.125Z,42.39
2022-09-22T15:25:50.854Z,44.61
2022-09-22T15:28:20.805Z,47.71
2022-09-22T15:30:48.790Z,48.14
2022-09-22T15:33:16.360Z,49.02
2022-09-22T15:35:46.277Z,49.99
2022-09-22T15:38:19.809Z,51.84
2022-09-22T15:40:47.967Z,55.94
2022-09-22T15:43:20.729Z,51.76
2022-09-22T15:45:49.377Z,52.18
2022-09-22T15:48:31.273Z,51.47
2022-09-22T15:51:00.977Z,54.28
2022-09-22T15:53:27.583Z,56.81
2022-09-22T15:55:54.762Z,56.94
2022-09-22T15:58:23.339Z,57.26
2022-09-22T16:00:53.442Z,56.23
2022-09-22T16:03:22.618Z,58.66
2022-09-22T16:05:54.570Z,57.52
2022-09-22T16:08:28.903Z,59.39
2022-09-22T16:10:56.885Z,56.47
2022-09-22T16:13:23.958Z,61.88
2022-09-22T16:15:51.470Z,63.92
2022-09-22T16:18:18.083Z,66.49
2022-09-22T16:20:45.689Z,67.10
2022-09-22T16:23:12.206Z,66.82
2022-09-22T16:25:42.135Z,67.49
2022-09-22T16:28:10.443Z,66.69
2022-09-22T16:30:37.580Z,65.68
2022-09-22T16:33:05.150Z,68.97
2022-09-22T16:35:31.649Z,69.79
2022-09-22T16:37:58.192Z,69.56
2022-09-22T16:40:25.680Z,70.22
2022-09-22T16:42:52.289Z,70.83
2022-09-22T16:45:38.840Z,70.39
2022-09-22T16:48:07.023Z,69.89
2022-09-22T16:50:36.511Z,68.39
2022-09-22T16:53:05.970Z,69.20
2022-09-22T16:55:36.766Z,72.50
2022-09-22T16:58:07.337Z,70.86
2022-09-22T17:00:33.942Z,72.02
2022-09-22T17:03:01.044Z,73.17
2022-09-22T17:05:27.961Z,74.12
2022-09-22T17:07:54.434Z,73.56
2022-09-22T17:10:21.202Z,71.53
2022-09-22T17:12:47.747Z,70.59
2022-09-22T17:15:16.379Z,71.91
2022-09-22T17:17:43.605Z,72.46
2022-09-22T17:20:10.554Z,72.54
2022-09-22T17:22:37.370Z,72.43
2022-09-22T17:25:04.051Z,72.20
2022-09-22T17:27:30.582Z,72.92
2022-09-22T17:29:57.525Z,71.98
2022-09-22T17:32:27.950Z,74.26
2022-09-22T17:34:54.764Z,74.15
2022-09-22T17:37:21.731Z,75.80
2022-09-22T17:39:49.135Z,76.41
2022-09-22T17:42:16.846Z,76.96
2022-09-22T17:44:43.346Z,76.69
2022-09-22T17:47:28.410Z,75.45
2022-09-22T17:50:13.301Z,75.25
2022-09-22T17:52:39.801Z,75.59
2022-09-22T17:55:14.138Z,74.15
2022-09-22T17:57:41.886Z,74.49
2022-09-22T18:00:14.292Z,75.42
2022-09-22T18:02:40.931Z,75.18
2022-09-22T18:05:13.598Z,74.04
2022-09-22T18:07:40.374Z,75.26
2022-09-22T18:10:13.229Z,74.91
2022-09-22T18:12:41.235Z,74.39
2022-09-22T18:15:12.767Z,76.06
2022-09-22T18:17:42.069Z,75.48
2022-09-22T18:20:11.580Z,77.42
2022-09-22T18:22:38.194Z,77.80
2022-09-22T18:25:05.887Z,77.10
2022-09-22T18:27:32.450Z,75.90
2022-09-22T18:29:58.984Z,75.07
2022-09-22T18:32:27.244Z,74.57
2022-09-22T18:34:55.260Z,75.19
2022-09-22T18:37:23.168Z,74.55
2022-09-22T18:39:50.761Z,74.26
2022-09-22T18:42:24.359Z,74.07
2022-09-22T18:44:52.275Z,74.25
2022-09-22T18:47:21.028Z,75.31
2022-09-22T18:49:51.368Z,75.13
2022-09-22T18:52:24.107Z,74.69
2022-09-22T18:54:53.803Z,75.57
2022-09-22T18:57:22.124Z,75.17
2022-09-22T18:59:51.022Z,75.72
2022-09-22T19:02:22.509Z,75.97
2022-09-22T19:04:51.521Z,77.08
2022-09-22T19:07:41.072Z,77.37
2022-09-22T19:10:13.708Z,79.08
2022-09-22T19:12:40.458Z,80.13
2022-09-22T19:15:16.763Z,80.63
2022-09-22T19:17:45.475Z,81.57
2022-09-22T19:20:23.964Z,79.83
2022-09-22T19:22:52.243Z,79.49
2022-09-22T19:25:21.401Z,81.05
2022-09-22T19:27:48.206Z,78.91
2022-09-22T19:30:14.938Z,78.45
2022-09-22T19:32:41.763Z,78.92
2022-09-22T19:35:09.414Z,80.94
2022-09-22T19:37:36.459Z,81.37
2022-09-22T19:40:03.582Z,80.66
2022-09-22T19:42:30.436Z,81.35
2022-09-22T19:44:56.934Z,81.86
2022-09-22T19:47:23.749Z,81.60
2022-09-22T19:49:50.294Z,82.21
2022-09-22T19:52:17.548Z,82.16
2022-09-22T19:54:44.377Z,82.85
2022-09-22T19:57:10.963Z,82.58
2022-09-22T19:59:37.525Z,82.28
2022-09-22T20:02:04.576Z,83.05
2022-09-22T20:04:35.151Z,84.17
2022-09-22T20:07:02.200Z,84.13
2022-09-22T20:09:29.280Z,82.73
2022-09-22T20:11:55.754Z,82.79
2022-09-22T20:14:22.556Z,83.23
2022-09-22T20:16:59.709Z,82.74
2022-09-22T20:19:27.746Z,83.23
2022-09-22T20:22:19.767Z,84.04
2022-09-22T20:24:54.817Z,85.20
2022-09-22T20:27:26.714Z,85.56
2022-09-22T20:29:57.107Z,85.92
2022-09-22T20:32:25.082Z,84.53
2022-09-22T20:34:52.818Z,86.06
2022-09-22T20:37:19.460Z,85.92
2022-09-22T20:39:46.039Z,84.92
2022-09-22T20:42:15.404Z,86.63
2022-09-22T20:44:42.320Z,87.29
2022-09-22T20:47:16.979Z,85.70
2022-09-22T20:49:45.918Z,86.11
2022-09-22T20:52:16.913Z,86.58
2022-09-22T20:54:44.775Z,86.51
2022-09-22T20:57:11.339Z,86.84
2022-09-22T20:59:39.003Z,86.66
2022-09-22T21:02:07.212Z,87.00
2022-09-22T21:04:34.064Z,87.90
2022-09-22T21:07:00.603Z,87.04
2022-09-22T21:09:45.498Z,86.17
2022-09-22T21:12:13.513Z,85.71
2022-09-22T21:14:42.147Z,85.94
2022-09-22T21:17:08.693Z,85.47
2022-09-22T21:19:36.455Z,87.45
2022-09-22T21:22:03.321Z,86.77
2022-09-22T21:24:31.390Z,86.69
2022-09-22T21:26:59.256Z,86.99
2022-09-22T21:29:26.049Z,87.45
2022-09-22T21:31:52.585Z,87.56
2022-09-22T21:34:19.097Z,87.59
2022-09-22T21:36:45.735Z,86.93
2022-09-22T21:39:12.323Z,87.08
2022-09-22T21:41:38.845Z,86.92
2022-09-22T21:44:05.851Z,86.08
2022-09-22T21:46:37.514Z,84.83
2022-09-22T21:49:04.389Z,85.24
2022-09-22T21:51:36.523Z,85.14
2022-09-22T21:54:04.839Z,85.47
2022-09-22T21:56:33.434Z,86.11
2022-09-22T21:59:02.570Z,85.81
2022-09-22T22:01:37.470Z,86.30
2022-09-22T22:04:08.986Z,86.01
2022-09-22T22:06:42.054Z,86.79
2022-09-22T22:09:20.179Z,87.62
2022-09-22T22:11:56.326Z,88.11
2022-09-22T22:14:25.799Z,87.12
2022-09-22T22:16:54.867Z,88.49
2022-09-22T22:19:25.648Z,88.79
2022-09-22T22:21:53.066Z,88.97
2022-09-22T22:24:36.697Z,89.95
2022-09-22T22:27:09.741Z,89.87
2022-09-22T22:29:38.666Z,90.15
2022-09-22T22:32:07.591Z,89.94
2022-09-22T22:34:34.156Z,89.55
2022-09-22T22:37:01.119Z,89.39
2022-09-22T22:39:27.674Z,89.09
2022-09-22T22:41:55.215Z,89.20
2022-09-22T22:44:23.337Z,89.02
2022-09-22T22:46:50.708Z,89.27
2022-09-22T22:49:17.273Z,89.17
2022-09-22T22:51:43.882Z,89.24
2022-09-22T22:54:11.793Z,88.72
2022-09-22T22:56:42.011Z,89.26
2022-09-22T22:59:10.597Z,88.52
2022-09-22T23:01:37.610Z,89.07
2022-09-22T23:04:06.863Z,88.88
2022-09-22T23:06:36.224Z,89.31
2022-09-22T23:09:06.147Z,89.25
2022-09-22T23:11:37.133Z,89.23
2022-09-22T23:14:06.208Z,89.20
2022-09-22T23:16:44.524Z,88.93
2022-09-22T23:19:14.694Z,88.90
2022-09-22T23:21:41.605Z,89.18
2022-09-22T23:24:08.701Z,88.06
2022-09-22T23:26:37.265Z,88.92
2022-09-22T23:29:04.339Z,89.03
2022-09-22T23:31:31.650Z,89.81
2022-09-22T23:33:58.232Z,91.15
2022-09-22T23:36:27.966Z,90.78
2022-09-22T23:38:56.322Z,90.99
2022-09-22T23:41:23.121Z,91.31
2022-09-22T23:43:49.842Z,90.86
2022-09-22T23:46:16.383Z,91.30
2022-09-22T23:48:42.906Z,91.14
2022-09-22T23:51:10.199Z,91.29
2022-09-22T23:53:37.729Z,91.39
2022-09-22T23:56:05.820Z,92.33
2022-09-22T23:58:33.402Z,92.52
